sensor_id;sensor_type;location;lat;lon;timestamp;P1;durP1;ratioP1;P2;durP2;ratioP2
41297;SDS011;27381;46.032;13.650;2023-02-15T00:01:19;9.13;;;5.15;;
41297;SDS011;27381;46.032;13.650;2023-02-15T00:03:44;9.73;;;5.22;;
41297;SDS011;27381;46.032;13.650;2023-02-15T00:06:10;9.38;;;4.47;;
41297;SDS011;27381;46.032;13.650;2023-02-15T00:08:35;12.90;;;5.00;;
41297;SDS011;27381;46.032;13.650;2023-02-15T00:11:04;4.97;;;3.80;;
41297;SDS011;27381;46.032;13.650;2023-02-15T00:13:30;8.60;;;5.30;;
41297;SDS011;27381;46.032;13.650;2023-02-15T00:15:59;10.63;;;5.22;;
41297;SDS011;27381;46.032;13.650;2023-02-15T00:18:25;6.93;;;3.90;;
41297;SDS011;27381;46.032;13.650;2023-02-15T00:20:50;12.80;;;4.85;;
41297;SDS011;27381;46.032;13.650;2023-02-15T00:23:16;7.57;;;4.18;;
41297;SDS011;27381;46.032;13.650;2023-02-15T00:25:41;9.35;;;4.25;;
41297;SDS011;27381;46.032;13.650;2023-02-15T00:28:06;9.73;;;5.45;;
41297;SDS011;27381;46.032;13.650;2023-02-15T00:30:33;13.27;;;5.88;;
41297;SDS011;27381;46.032;13.650;2023-02-15T00:32:59;14.85;;;5.80;;
41297;SDS011;27381;46.032;13.650;2023-02-15T00:35:25;12.57;;;4.95;;
41297;SDS011;27381;46.032;13.650;2023-02-15T00:37:50;9.15;;;5.53;;
41297;SDS011;27381;46.032;13.650;2023-02-15T00:40:17;10.43;;;5.28;;
41297;SDS011;27381;46.032;13.650;2023-02-15T00:42:43;12.55;;;6.95;;
41297;SDS011;27381;46.032;13.650;2023-02-15T00:45:08;8.40;;;3.83;;
41297;SDS011;27381;46.032;13.650;2023-02-15T00:47:34;9.75;;;5.60;;
41297;SDS011;27381;46.032;13.650;2023-02-15T00:49:59;12.95;;;6.13;;
41297;SDS011;27381;46.032;13.650;2023-02-15T00:52:25;8.48;;;5.53;;
41297;SDS011;27381;46.032;13.650;2023-02-15T00:54:50;10.90;;;5.55;;
41297;SDS011;27381;46.032;13.650;2023-02-15T00:57:16;13.95;;;5.45;;
41297;SDS011;27381;46.032;13.650;2023-02-15T00:59:41;7.65;;;4.63;;
41297;SDS011;27381;46.032;13.650;2023-02-15T01:02:06;9.18;;;4.72;;
41297;SDS011;27381;46.032;13.650;2023-02-15T01:04:32;7.75;;;4.60;;
41297;SDS011;27381;46.032;13.650;2023-02-15T01:06:57;8.82;;;4.97;;
41297;SDS011;27381;46.032;13.650;2023-02-15T01:09:23;10.18;;;5.38;;
41297;SDS011;27381;46.032;13.650;2023-02-15T01:11:48;6.25;;;4.15;;
41297;SDS011;27381;46.032;13.650;2023-02-15T01:14:13;9.75;;;5.63;;
41297;SDS011;27381;46.032;13.650;2023-02-15T01:16:40;8.27;;;5.57;;
41297;SDS011;27381;46.032;13.650;2023-02-15T01:19:06;10.98;;;5.45;;
41297;SDS011;27381;46.032;13.650;2023-02-15T01:21:31;10.82;;;5.35;;
41297;SDS011;27381;46.032;13.650;2023-02-15T01:23:59;7.35;;;4.63;;
41297;SDS011;27381;46.032;13.650;2023-02-15T01:26:26;8.40;;;4.85;;
41297;SDS011;27381;46.032;13.650;2023-02-15T01:28:51;12.20;;;5.35;;
41297;SDS011;27381;46.032;13.650;2023-02-15T01:31:17;10.10;;;5.57;;
41297;SDS011;27381;46.032;13.650;2023-02-15T01:33:45;10.85;;;5.30;;
41297;SDS011;27381;46.032;13.650;2023-02-15T01:36:11;6.20;;;3.85;;
41297;SDS011;27381;46.032;13.650;2023-02-15T01:38:37;11.00;;;5.47;;
41297;SDS011;27381;46.032;13.650;2023-02-15T01:41:04;12.75;;;5.72;;
41297;SDS011;27381;46.032;13.650;2023-02-15T01:43:46;11.00;;;5.72;;
41297;SDS011;27381;46.032;13.650;2023-02-15T01:46:13;3.85;;;3.05;;
41297;SDS011;27381;46.032;13.650;2023-02-15T01:48:50;9.77;;;4.38;;
41297;SDS011;27381;46.032;13.650;2023-02-15T01:51:18;10.65;;;5.03;;
41297;SDS011;27381;46.032;13.650;2023-02-15T01:53:57;9.05;;;5.22;;
41297;SDS011;27381;46.032;13.650;2023-02-15T01:56:25;11.18;;;4.82;;
41297;SDS011;27381;46.032;13.650;2023-02-15T01:58:53;10.63;;;4.78;;
41297;SDS011;27381;46.032;13.650;2023-02-15T02:01:19;7.78;;;5.07;;
41297;SDS011;27381;46.032;13.650;2023-02-15T02:06:29;5.20;;;3.53;;
41297;SDS011;27381;46.032;13.650;2023-02-15T02:08:55;9.32;;;4.68;;
41297;SDS011;27381;46.032;13.650;2023-02-15T02:11:21;12.02;;;4.80;;
41297;SDS011;27381;46.032;13.650;2023-02-15T02:13:46;7.93;;;4.30;;
41297;SDS011;27381;46.032;13.650;2023-02-15T02:34:29;9.13;;;4.60;;
41297;SDS011;27381;46.032;13.650;2023-02-15T02:41:54;5.53;;;4.05;;
41297;SDS011;27381;46.032;13.650;2023-02-15T02:44:36;9.30;;;4.90;;
41297;SDS011;27381;46.032;13.650;2023-02-15T02:49:42;7.88;;;4.15;;
41297;SDS011;27381;46.032;13.650;2023-02-15T02:54:53;12.32;;;5.60;;
41297;SDS011;27381;46.032;13.650;2023-02-15T02:57:20;8.48;;;4.45;;
41297;SDS011;27381;46.032;13.650;2023-02-15T02:59:47;9.13;;;4.05;;
41297;SDS011;27381;46.032;13.650;2023-02-15T03:02:27;8.93;;;4.70;;
41297;SDS011;27381;46.032;13.650;2023-02-15T03:04:57;9.32;;;5.38;;
41297;SDS011;27381;46.032;13.650;2023-02-15T03:07:28;6.13;;;3.85;;
41297;SDS011;27381;46.032;13.650;2023-02-15T03:09:56;9.20;;;3.92;;
41297;SDS011;27381;46.032;13.650;2023-02-15T03:12:24;9.55;;;5.05;;
41297;SDS011;27381;46.032;13.650;2023-02-15T03:14:52;6.47;;;3.42;;
41297;SDS011;27381;46.032;13.650;2023-02-15T03:17:21;8.88;;;4.82;;
41297;SDS011;27381;46.032;13.650;2023-02-15T03:19:48;12.90;;;4.47;;
41297;SDS011;27381;46.032;13.650;2023-02-15T03:24:52;10.85;;;4.63;;
41297;SDS011;27381;46.032;13.650;2023-02-15T03:27:21;7.43;;;3.92;;
41297;SDS011;27381;46.032;13.650;2023-02-15T03:29:48;9.20;;;4.82;;
41297;SDS011;27381;46.032;13.650;2023-02-15T03:32:15;8.23;;;4.15;;
41297;SDS011;27381;46.032;13.650;2023-02-15T03:34:41;12.90;;;6.00;;
41297;SDS011;27381;46.032;13.650;2023-02-15T03:39:48;13.18;;;5.57;;
41297;SDS011;27381;46.032;13.650;2023-02-15T03:42:17;11.30;;;4.68;;
41297;SDS011;27381;46.032;13.650;2023-02-15T03:45:04;9.43;;;4.32;;
41297;SDS011;27381;46.032;13.650;2023-02-15T03:47:41;13.93;;;6.18;;
41297;SDS011;27381;46.032;13.650;2023-02-15T03:50:08;7.47;;;3.83;;
41297;SDS011;27381;46.032;13.650;2023-02-15T03:52:55;10.18;;;4.85;;
41297;SDS011;27381;46.032;13.650;2023-02-15T03:55:22;10.15;;;5.13;;
41297;SDS011;27381;46.032;13.650;2023-02-15T03:57:47;7.78;;;4.30;;
41297;SDS011;27381;46.032;13.650;2023-02-15T04:00:32;9.95;;;4.93;;
41297;SDS011;27381;46.032;13.650;2023-02-15T04:03:36;16.15;;;6.50;;
41297;SDS011;27381;46.032;13.650;2023-02-15T04:06:03;8.15;;;4.70;;
41297;SDS011;27381;46.032;13.650;2023-02-15T04:08:28;8.82;;;4.90;;
41297;SDS011;27381;46.032;13.650;2023-02-15T04:11:13;10.50;;;5.38;;
41297;SDS011;27381;46.032;13.650;2023-02-15T04:13:38;8.82;;;4.85;;
41297;SDS011;27381;46.032;13.650;2023-02-15T04:16:04;9.10;;;5.00;;
41297;SDS011;27381;46.032;13.650;2023-02-15T04:21:13;9.13;;;4.90;;
41297;SDS011;27381;46.032;13.650;2023-02-15T04:23:57;9.90;;;5.63;;
41297;SDS011;27381;46.032;13.650;2023-02-15T04:26:41;9.40;;;3.63;;
41297;SDS011;27381;46.032;13.650;2023-02-15T04:29:06;7.38;;;3.40;;
41297;SDS011;27381;46.032;13.650;2023-02-15T04:31:31;17.48;;;5.68;;
41297;SDS011;27381;46.032;13.650;2023-02-15T04:33:57;10.82;;;5.05;;
41297;SDS011;27381;46.032;13.650;2023-02-15T04:36:22;11.68;;;6.07;;
41297;SDS011;27381;46.032;13.650;2023-02-15T04:38:47;6.97;;;4.53;;
41297;SDS011;27381;46.032;13.650;2023-02-15T04:41:13;7.97;;;4.53;;
41297;SDS011;27381;46.032;13.650;2023-02-15T04:43:38;10.68;;;6.13;;
41297;SDS011;27381;46.032;13.650;2023-02-15T04:46:04;13.95;;;5.97;;
41297;SDS011;27381;46.032;13.650;2023-02-15T04:48:29;9.85;;;5.28;;
41297;SDS011;27381;46.032;13.650;2023-02-15T04:50:55;13.80;;;6.47;;
41297;SDS011;27381;46.032;13.650;2023-02-15T04:53:20;10.02;;;4.95;;
41297;SDS011;27381;46.032;13.650;2023-02-15T04:55:45;13.13;;;4.40;;
41297;SDS011;27381;46.032;13.650;2023-02-15T04:58:11;4.68;;;3.28;;
41297;SDS011;27381;46.032;13.650;2023-02-15T05:00:36;11.13;;;5.65;;
41297;SDS011;27381;46.032;13.650;2023-02-15T05:03:02;12.85;;;5.50;;
41297;SDS011;27381;46.032;13.650;2023-02-15T05:05:27;9.90;;;3.70;;
41297;SDS011;27381;46.032;13.650;2023-02-15T05:07:53;9.95;;;5.97;;
41297;SDS011;27381;46.032;13.650;2023-02-15T05:10:19;13.65;;;5.47;;
41297;SDS011;27381;46.032;13.650;2023-02-15T05:12:44;10.02;;;5.20;;
41297;SDS011;27381;46.032;13.650;2023-02-15T05:15:09;12.93;;;6.28;;
41297;SDS011;27381;46.032;13.650;2023-02-15T05:17:35;6.88;;;4.63;;
41297;SDS011;27381;46.032;13.650;2023-02-15T05:20:01;7.50;;;3.80;;
41297;SDS011;27381;46.032;13.650;2023-02-15T05:22:26;11.80;;;5.10;;
41297;SDS011;27381;46.032;13.650;2023-02-15T05:24:51;10.48;;;5.25;;
41297;SDS011;27381;46.032;13.650;2023-02-15T05:27:35;11.50;;;5.63;;
41297;SDS011;27381;46.032;13.650;2023-02-15T05:30:19;20.75;;;6.10;;
41297;SDS011;27381;46.032;13.650;2023-02-15T05:32:45;12.10;;;6.18;;
41297;SDS011;27381;46.032;13.650;2023-02-15T05:35:15;11.23;;;5.22;;
41297;SDS011;27381;46.032;13.650;2023-02-15T05:37:40;9.88;;;5.25;;
41297;SDS011;27381;46.032;13.650;2023-02-15T05:40:07;14.00;;;5.95;;
41297;SDS011;27381;46.032;13.650;2023-02-15T05:42:32;16.17;;;6.63;;
41297;SDS011;27381;46.032;13.650;2023-02-15T05:44:58;6.03;;;3.80;;
41297;SDS011;27381;46.032;13.650;2023-02-15T05:47:23;18.08;;;7.32;;
41297;SDS011;27381;46.032;13.650;2023-02-15T05:49:49;4.72;;;2.92;;
41297;SDS011;27381;46.032;13.650;2023-02-15T05:52:14;7.32;;;3.50;;
41297;SDS011;27381;46.032;13.650;2023-02-15T05:54:40;12.95;;;4.88;;
41297;SDS011;27381;46.032;13.650;2023-02-15T05:57:05;11.10;;;5.47;;
41297;SDS011;27381;46.032;13.650;2023-02-15T05:59:31;13.35;;;6.68;;
41297;SDS011;27381;46.032;13.650;2023-02-15T06:01:56;12.20;;;5.75;;
41297;SDS011;27381;46.032;13.650;2023-02-15T06:04:22;13.32;;;5.55;;
41297;SDS011;27381;46.032;13.650;2023-02-15T06:06:47;15.57;;;6.60;;
41297;SDS011;27381;46.032;13.650;2023-02-15T06:09:12;12.82;;;6.20;;
41297;SDS011;27381;46.032;13.650;2023-02-15T06:11:38;8.13;;;5.05;;
41297;SDS011;27381;46.032;13.650;2023-02-15T06:14:03;11.52;;;5.75;;
41297;SDS011;27381;46.032;13.650;2023-02-15T06:16:29;12.90;;;6.13;;
41297;SDS011;27381;46.032;13.650;2023-02-15T06:18:54;8.30;;;4.85;;
41297;SDS011;27381;46.032;13.650;2023-02-15T06:21:20;9.38;;;5.10;;
41297;SDS011;27381;46.032;13.650;2023-02-15T06:23:45;8.48;;;5.15;;
41297;SDS011;27381;46.032;13.650;2023-02-15T06:26:11;7.15;;;4.20;;
41297;SDS011;27381;46.032;13.650;2023-02-15T06:28:36;10.98;;;5.07;;
41297;SDS011;27381;46.032;13.650;2023-02-15T06:31:02;11.55;;;6.72;;
41297;SDS011;27381;46.032;13.650;2023-02-15T06:33:28;13.68;;;6.13;;
41297;SDS011;27381;46.032;13.650;2023-02-15T06:35:55;14.13;;;7.03;;
41297;SDS011;27381;46.032;13.650;2023-02-15T06:38:21;12.45;;;6.30;;
41297;SDS011;27381;46.032;13.650;2023-02-15T06:40:47;12.45;;;6.50;;
41297;SDS011;27381;46.032;13.650;2023-02-15T06:43:12;12.63;;;6.07;;
41297;SDS011;27381;46.032;13.650;2023-02-15T06:45:37;17.00;;;7.38;;
41297;SDS011;27381;46.032;13.650;2023-02-15T06:48:03;11.95;;;6.03;;
41297;SDS011;27381;46.032;13.650;2023-02-15T06:50:28;11.18;;;5.28;;
41297;SDS011;27381;46.032;13.650;2023-02-15T06:52:57;11.20;;;5.20;;
41297;SDS011;27381;46.032;13.650;2023-02-15T06:55:23;7.35;;;4.65;;
41297;SDS011;27381;46.032;13.650;2023-02-15T06:57:48;11.05;;;4.65;;
41297;SDS011;27381;46.032;13.650;2023-02-15T07:00:14;12.27;;;5.78;;
41297;SDS011;27381;46.032;13.650;2023-02-15T07:02:39;10.77;;;5.20;;
41297;SDS011;27381;46.032;13.650;2023-02-15T07:05:05;9.57;;;4.78;;
41297;SDS011;27381;46.032;13.650;2023-02-15T07:07:30;18.63;;;6.18;;
41297;SDS011;27381;46.032;13.650;2023-02-15T07:09:56;12.23;;;5.47;;
41297;SDS011;27381;46.032;13.650;2023-02-15T07:12:21;12.68;;;5.15;;
41297;SDS011;27381;46.032;13.650;2023-02-15T07:15:10;13.98;;;5.40;;
41297;SDS011;27381;46.032;13.650;2023-02-15T07:17:36;17.85;;;7.75;;
41297;SDS011;27381;46.032;13.650;2023-02-15T07:20:03;13.43;;;6.65;;
41297;SDS011;27381;46.032;13.650;2023-02-15T07:22:29;12.52;;;7.22;;
41297;SDS011;27381;46.032;13.650;2023-02-15T07:24:54;15.43;;;7.20;;
41297;SDS011;27381;46.032;13.650;2023-02-15T07:27:20;8.85;;;5.38;;
41297;SDS011;27381;46.032;13.650;2023-02-15T07:29:46;8.18;;;4.93;;
41297;SDS011;27381;46.032;13.650;2023-02-15T07:32:11;8.15;;;4.78;;
41297;SDS011;27381;46.032;13.650;2023-02-15T07:34:37;8.82;;;4.85;;
41297;SDS011;27381;46.032;13.650;2023-02-15T07:37:02;10.73;;;6.00;;
41297;SDS011;27381;46.032;13.650;2023-02-15T07:39:28;9.80;;;5.70;;
41297;SDS011;27381;46.032;13.650;2023-02-15T07:41:53;12.55;;;5.70;;
41297;SDS011;27381;46.032;13.650;2023-02-15T07:44:19;12.90;;;6.07;;
41297;SDS011;27381;46.032;13.650;2023-02-15T07:46:44;12.88;;;6.28;;
41297;SDS011;27381;46.032;13.650;2023-02-15T07:49:10;9.38;;;4.88;;
41297;SDS011;27381;46.032;13.650;2023-02-15T07:51:35;11.00;;;5.68;;
41297;SDS011;27381;46.032;13.650;2023-02-15T07:54:00;16.08;;;5.05;;
41297;SDS011;27381;46.032;13.650;2023-02-15T07:56:26;11.23;;;5.50;;
41297;SDS011;27381;46.032;13.650;2023-02-15T07:58:51;12.77;;;7.45;;
41297;SDS011;27381;46.032;13.650;2023-02-15T08:01:18;10.82;;;6.53;;
41297;SDS011;27381;46.032;13.650;2023-02-15T08:03:44;10.27;;;6.55;;
41297;SDS011;27381;46.032;13.650;2023-02-15T08:06:09;13.32;;;5.43;;
41297;SDS011;27381;46.032;13.650;2023-02-15T08:08:36;13.38;;;6.15;;
41297;SDS011;27381;46.032;13.650;2023-02-15T08:11:04;11.32;;;5.70;;
41297;SDS011;27381;46.032;13.650;2023-02-15T08:13:49;10.07;;;5.72;;
41297;SDS011;27381;46.032;13.650;2023-02-15T08:16:22;11.27;;;5.20;;
41297;SDS011;27381;46.032;13.650;2023-02-15T08:18:48;12.05;;;5.63;;
41297;SDS011;27381;46.032;13.650;2023-02-15T08:21:13;11.77;;;5.45;;
41297;SDS011;27381;46.032;13.650;2023-02-15T08:23:39;8.43;;;4.82;;
41297;SDS011;27381;46.032;13.650;2023-02-15T08:26:05;7.97;;;4.35;;
41297;SDS011;27381;46.032;13.650;2023-02-15T08:28:30;12.40;;;6.18;;
41297;SDS011;27381;46.032;13.650;2023-02-15T08:31:10;7.72;;;5.50;;
41297;SDS011;27381;46.032;13.650;2023-02-15T08:33:36;11.32;;;5.93;;
41297;SDS011;27381;46.032;13.650;2023-02-15T08:36:05;8.05;;;4.85;;
41297;SDS011;27381;46.032;13.650;2023-02-15T08:38:31;11.77;;;5.95;;
41297;SDS011;27381;46.032;13.650;2023-02-15T08:40:57;10.02;;;5.93;;
41297;SDS011;27381;46.032;13.650;2023-02-15T08:43:23;12.82;;;5.85;;
41297;SDS011;27381;46.032;13.650;2023-02-15T08:45:48;4.97;;;3.80;;
41297;SDS011;27381;46.032;13.650;2023-02-15T08:48:14;9.15;;;5.75;;
41297;SDS011;27381;46.032;13.650;2023-02-15T08:50:39;11.27;;;5.07;;
41297;SDS011;27381;46.032;13.650;2023-02-15T08:53:05;10.52;;;5.65;;
41297;SDS011;27381;46.032;13.650;2023-02-15T08:55:31;13.20;;;5.70;;
41297;SDS011;27381;46.032;13.650;2023-02-15T11:34:10;6.90;;;3.42;;
41297;SDS011;27381;46.032;13.650;2023-02-15T11:36:37;6.28;;;4.00;;
41297;SDS011;27381;46.032;13.650;2023-02-15T11:39:11;9.10;;;4.28;;
41297;SDS011;27381;46.032;13.650;2023-02-15T11:41:45;4.32;;;2.50;;
41297;SDS011;27381;46.032;13.650;2023-02-15T11:44:14;7.00;;;2.70;;
41297;SDS011;27381;46.032;13.650;2023-02-15T11:46:41;6.00;;;2.92;;
41297;SDS011;27381;46.032;13.650;2023-02-15T11:49:17;12.30;;;3.65;;
41297;SDS011;27381;46.032;13.650;2023-02-15T11:51:45;5.18;;;3.30;;
41297;SDS011;27381;46.032;13.650;2023-02-15T11:54:11;3.75;;;2.63;;
41297;SDS011;27381;46.032;13.650;2023-02-15T11:56:36;5.15;;;3.05;;
41297;SDS011;27381;46.032;13.650;2023-02-15T11:59:04;6.22;;;2.80;;
41297;SDS011;27381;46.032;13.650;2023-02-15T12:01:33;7.32;;;2.58;;
41297;SDS011;27381;46.032;13.650;2023-02-15T12:06:44;5.57;;;3.45;;
41297;SDS011;27381;46.032;13.650;2023-02-15T12:11:55;5.30;;;2.67;;
41297;SDS011;27381;46.032;13.650;2023-02-15T12:14:47;4.50;;;2.60;;
41297;SDS011;27381;46.032;13.650;2023-02-15T12:17:13;4.25;;;2.95;;
41297;SDS011;27381;46.032;13.650;2023-02-15T12:19:40;6.85;;;3.60;;
41297;SDS011;27381;46.032;13.650;2023-02-15T12:22:11;9.82;;;3.95;;
41297;SDS011;27381;46.032;13.650;2023-02-15T12:24:46;9.38;;;4.10;;
41297;SDS011;27381;46.032;13.650;2023-02-15T12:30:19;6.15;;;3.17;;
41297;SDS011;27381;46.032;13.650;2023-02-15T12:32:48;5.55;;;3.08;;
41297;SDS011;27381;46.032;13.650;2023-02-15T12:35:18;11.38;;;2.42;;
41297;SDS011;27381;46.032;13.650;2023-02-15T12:37:52;3.78;;;2.15;;
41297;SDS011;27381;46.032;13.650;2023-02-15T12:40:31;3.00;;;2.47;;
41297;SDS011;27381;46.032;13.650;2023-02-15T12:42:58;4.28;;;2.78;;
41297;SDS011;27381;46.032;13.650;2023-02-15T12:48:38;9.15;;;3.72;;
41297;SDS011;27381;46.032;13.650;2023-02-15T12:50:36;2.80;;;1.95;;
41297;SDS011;27381;46.032;13.650;2023-02-15T12:55:42;4.63;;;2.38;;
41297;SDS011;27381;46.032;13.650;2023-02-15T12:58:18;5.03;;;2.40;;
41297;SDS011;27381;46.032;13.650;2023-02-15T13:00:44;7.32;;;2.42;;
41297;SDS011;27381;46.032;13.650;2023-02-15T13:03:18;3.42;;;2.20;;
41297;SDS011;27381;46.032;13.650;2023-02-15T13:05:44;3.30;;;2.35;;
41297;SDS011;27381;46.032;13.650;2023-02-15T13:08:12;4.63;;;2.95;;
41297;SDS011;27381;46.032;13.650;2023-02-15T13:13:24;5.07;;;3.10;;
41297;SDS011;27381;46.032;13.650;2023-02-15T13:15:52;4.68;;;2.58;;
41297;SDS011;27381;46.032;13.650;2023-02-15T13:18:30;3.88;;;2.15;;
41297;SDS011;27381;46.032;13.650;2023-02-15T13:20:56;3.47;;;1.92;;
41297;SDS011;27381;46.032;13.650;2023-02-15T13:23:28;2.95;;;2.22;;
41297;SDS011;27381;46.032;13.650;2023-02-15T13:25:55;5.93;;;2.10;;
41297;SDS011;27381;46.032;13.650;2023-02-15T13:28:22;4.25;;;2.10;;
41297;SDS011;27381;46.032;13.650;2023-02-15T13:30:50;3.17;;;2.30;;
41297;SDS011;27381;46.032;13.650;2023-02-15T13:36:02;3.35;;;2.08;;
41297;SDS011;27381;46.032;13.650;2023-02-15T13:41:04;3.70;;;1.90;;
41297;SDS011;27381;46.032;13.650;2023-02-15T13:43:36;2.70;;;1.40;;
41297;SDS011;27381;46.032;13.650;2023-02-15T13:48:36;4.72;;;2.08;;
41297;SDS011;27381;46.032;13.650;2023-02-15T14:13:55;2.70;;;1.52;;
41297;SDS011;27381;46.032;13.650;2023-02-15T14:16:30;2.22;;;1.15;;
41297;SDS011;27381;46.032;13.650;2023-02-15T14:21:42;2.40;;;1.95;;
41297;SDS011;27381;46.032;13.650;2023-02-15T14:24:14;3.08;;;1.67;;
41297;SDS011;27381;46.032;13.650;2023-02-15T14:29:15;3.72;;;1.73;;
41297;SDS011;27381;46.032;13.650;2023-02-15T14:31:42;1.35;;;1.13;;
41297;SDS011;27381;46.032;13.650;2023-02-15T14:36:54;2.33;;;1.70;;
41297;SDS011;27381;46.032;13.650;2023-02-15T14:39:56;2.88;;;1.95;;
41297;SDS011;27381;46.032;13.650;2023-02-15T14:43:18;2.38;;;1.73;;
41297;SDS011;27381;46.032;13.650;2023-02-15T14:50:43;1.48;;;1.25;;
41297;SDS011;27381;46.032;13.650;2023-02-15T14:53:16;2.67;;;1.58;;
41297;SDS011;27381;46.032;13.650;2023-02-15T14:55:42;2.38;;;1.25;;
41297;SDS011;27381;46.032;13.650;2023-02-15T14:58:11;3.58;;;1.77;;
41297;SDS011;27381;46.032;13.650;2023-02-15T15:00:38;3.58;;;1.60;;
41297;SDS011;27381;46.032;13.650;2023-02-15T15:03:21;2.42;;;1.90;;
41297;SDS011;27381;46.032;13.650;2023-02-15T15:08:26;3.55;;;1.83;;
41297;SDS011;27381;46.032;13.650;2023-02-15T15:10:54;2.60;;;2.30;;
41297;SDS011;27381;46.032;13.650;2023-02-15T15:15:55;4.80;;;2.42;;
41297;SDS011;27381;46.032;13.650;2023-02-15T15:21:06;5.63;;;2.55;;
41297;SDS011;27381;46.032;13.650;2023-02-15T15:26:46;3.38;;;2.03;;
41297;SDS011;27381;46.032;13.650;2023-02-15T15:28:54;4.50;;;2.33;;
41297;SDS011;27381;46.032;13.650;2023-02-15T15:39:01;8.15;;;2.55;;
41297;SDS011;27381;46.032;13.650;2023-02-15T15:44:22;10.60;;;2.83;;
41297;SDS011;27381;46.032;13.650;2023-02-15T15:49:31;6.72;;;3.58;;
41297;SDS011;27381;46.032;13.650;2023-02-15T15:52:16;6.88;;;3.00;;
41297;SDS011;27381;46.032;13.650;2023-02-15T15:54:43;5.10;;;3.15;;
41297;SDS011;27381;46.032;13.650;2023-02-15T15:57:15;10.65;;;4.13;;
41297;SDS011;27381;46.032;13.650;2023-02-15T15:59:43;12.82;;;4.05;;
41297;SDS011;27381;46.032;13.650;2023-02-15T16:02:11;9.68;;;4.25;;
41297;SDS011;27381;46.032;13.650;2023-02-15T16:04:38;9.43;;;4.97;;
41297;SDS011;27381;46.032;13.650;2023-02-15T16:07:13;11.38;;;4.53;;
41297;SDS011;27381;46.032;13.650;2023-02-15T16:09:39;9.10;;;3.85;;
41297;SDS011;27381;46.032;13.650;2023-02-15T16:12:04;9.18;;;4.53;;
41297;SDS011;27381;46.032;13.650;2023-02-15T16:14:39;9.40;;;4.57;;
41297;SDS011;27381;46.032;13.650;2023-02-15T16:17:06;15.38;;;5.63;;
41297;SDS011;27381;46.032;13.650;2023-02-15T16:19:32;7.78;;;4.70;;
41297;SDS011;27381;46.032;13.650;2023-02-15T16:21:59;11.25;;;5.68;;
41297;SDS011;27381;46.032;13.650;2023-02-15T16:24:29;7.20;;;4.47;;
41297;SDS011;27381;46.032;13.650;2023-02-15T16:29:44;9.68;;;6.50;;
41297;SDS011;27381;46.032;13.650;2023-02-15T16:32:19;7.55;;;4.65;;
41297;SDS011;27381;46.032;13.650;2023-02-15T16:34:52;11.98;;;7.50;;
41297;SDS011;27381;46.032;13.650;2023-02-15T16:37:19;11.98;;;7.43;;
41297;SDS011;27381;46.032;13.650;2023-02-15T16:39:46;13.70;;;7.95;;
41297;SDS011;27381;46.032;13.650;2023-02-15T16:42:13;15.95;;;6.50;;
41297;SDS011;27381;46.032;13.650;2023-02-15T16:44:40;13.90;;;6.35;;
41297;SDS011;27381;46.032;13.650;2023-02-15T16:47:10;8.93;;;6.43;;
41297;SDS011;27381;46.032;13.650;2023-02-15T16:49:38;8.18;;;5.88;;
41297;SDS011;27381;46.032;13.650;2023-02-15T16:52:10;11.25;;;5.82;;
41297;SDS011;27381;46.032;13.650;2023-02-15T16:54:41;11.40;;;7.53;;
41297;SDS011;27381;46.032;13.650;2023-02-15T16:57:14;13.23;;;6.00;;
41297;SDS011;27381;46.032;13.650;2023-02-15T16:59:41;11.48;;;5.88;;
41297;SDS011;27381;46.032;13.650;2023-02-15T17:04:42;11.48;;;5.97;;
41297;SDS011;27381;46.032;13.650;2023-02-15T17:07:15;14.18;;;6.80;;
41297;SDS011;27381;46.032;13.650;2023-02-15T17:12:08;8.93;;;4.50;;
41297;SDS011;27381;46.032;13.650;2023-02-15T17:14:37;14.77;;;6.90;;
41297;SDS011;27381;46.032;13.650;2023-02-15T17:17:06;13.52;;;7.43;;
41297;SDS011;27381;46.032;13.650;2023-02-15T17:19:44;17.92;;;6.85;;
41297;SDS011;27381;46.032;13.650;2023-02-15T17:22:17;10.32;;;6.15;;
41297;SDS011;27381;46.032;13.650;2023-02-15T17:24:44;10.65;;;5.78;;
41297;SDS011;27381;46.032;13.650;2023-02-15T17:27:18;12.38;;;6.35;;
41297;SDS011;27381;46.032;13.650;2023-02-15T17:29:57;8.82;;;5.15;;
41297;SDS011;27381;46.032;13.650;2023-02-15T17:32:26;13.77;;;7.25;;
41297;SDS011;27381;46.032;13.650;2023-02-15T17:39:53;11.63;;;5.57;;
41297;SDS011;27381;46.032;13.650;2023-02-15T17:42:18;11.07;;;5.97;;
41297;SDS011;27381;46.032;13.650;2023-02-15T17:44:44;9.32;;;5.60;;
41297;SDS011;27381;46.032;13.650;2023-02-15T17:47:13;9.40;;;5.57;;
41297;SDS011;27381;46.032;13.650;2023-02-15T17:49:40;10.85;;;5.68;;
41297;SDS011;27381;46.032;13.650;2023-02-15T17:52:08;11.18;;;5.28;;
41297;SDS011;27381;46.032;13.650;2023-02-15T17:54:35;12.55;;;5.60;;
41297;SDS011;27381;46.032;13.650;2023-02-15T17:57:19;13.25;;;6.05;;
41297;SDS011;27381;46.032;13.650;2023-02-15T17:59:44;12.40;;;5.25;;
41297;SDS011;27381;46.032;13.650;2023-02-15T18:02:37;11.33;;;4.43;;
41297;SDS011;27381;46.032;13.650;2023-02-15T18:05:22;11.00;;;4.93;;
41297;SDS011;27381;46.032;13.650;2023-02-15T18:08:16;7.68;;;5.47;;
41297;SDS011;27381;46.032;13.650;2023-02-15T18:11:01;8.32;;;4.25;;
41297;SDS011;27381;46.032;13.650;2023-02-15T18:13:48;9.05;;;3.92;;
41297;SDS011;27381;46.032;13.650;2023-02-15T18:16:15;10.63;;;5.10;;
41297;SDS011;27381;46.032;13.650;2023-02-15T18:18:43;13.45;;;4.95;;
41297;SDS011;27381;46.032;13.650;2023-02-15T18:21:10;8.27;;;5.47;;
41297;SDS011;27381;46.032;13.650;2023-02-15T18:23:37;6.97;;;3.78;;
41297;SDS011;27381;46.032;13.650;2023-02-15T18:26:06;9.43;;;5.00;;
41297;SDS011;27381;46.032;13.650;2023-02-15T18:28:31;7.80;;;4.22;;
41297;SDS011;27381;46.032;13.650;2023-02-15T18:30:57;12.60;;;4.80;;
41297;SDS011;27381;46.032;13.650;2023-02-15T18:33:33;25.20;;;5.18;;
41297;SDS011;27381;46.032;13.650;2023-02-15T18:36:03;9.98;;;5.57;;
41297;SDS011;27381;46.032;13.650;2023-02-15T18:38:32;12.30;;;5.75;;
41297;SDS011;27381;46.032;13.650;2023-02-15T18:41:01;12.63;;;5.28;;
41297;SDS011;27381;46.032;13.650;2023-02-15T18:43:30;8.65;;;5.25;;
41297;SDS011;27381;46.032;13.650;2023-02-15T18:45:56;10.23;;;5.55;;
41297;SDS011;27381;46.032;13.650;2023-02-15T18:48:21;10.55;;;4.72;;
41297;SDS011;27381;46.032;13.650;2023-02-15T18:50:47;9.07;;;4.80;;
41297;SDS011;27381;46.032;13.650;2023-02-15T18:53:17;6.35;;;4.03;;
41297;SDS011;27381;46.032;13.650;2023-02-15T18:55:44;8.93;;;5.72;;
41297;SDS011;27381;46.032;13.650;2023-02-15T18:58:21;6.18;;;4.45;;
41297;SDS011;27381;46.032;13.650;2023-02-15T19:00:48;6.35;;;4.03;;
41297;SDS011;27381;46.032;13.650;2023-02-15T19:03:15;3.75;;;3.08;;
41297;SDS011;27381;46.032;13.650;2023-02-15T19:05:43;4.90;;;3.17;;
41297;SDS011;27381;46.032;13.650;2023-02-15T19:08:21;8.55;;;4.18;;
41297;SDS011;27381;46.032;13.650;2023-02-15T19:10:49;5.55;;;3.22;;
41297;SDS011;27381;46.032;13.650;2023-02-15T19:13:15;5.75;;;3.75;;
41297;SDS011;27381;46.032;13.650;2023-02-15T19:15:42;6.53;;;3.85;;
41297;SDS011;27381;46.032;13.650;2023-02-15T19:18:08;3.47;;;2.92;;
41297;SDS011;27381;46.032;13.650;2023-02-15T19:20:43;6.50;;;4.03;;
41297;SDS011;27381;46.032;13.650;2023-02-15T19:23:21;4.93;;;3.40;;
41297;SDS011;27381;46.032;13.650;2023-02-15T19:25:48;5.78;;;3.63;;
41297;SDS011;27381;46.032;13.650;2023-02-15T19:28:17;6.35;;;3.67;;
41297;SDS011;27381;46.032;13.650;2023-02-15T19:30:43;5.55;;;3.47;;